Rechercher aéroport 
image banner adimage banner adimage banner ad
image banner ad

18CN - Ucsf Medical Center At Mission Bay

Situé à San Francisco, United States

ICAO - 18CN, IATA -

Données fournies par Airmate  

Information générale

Coordonnées: N37°45'57" W122°23'25"
Élévation : 156 feet MSL.
 
Voir autres Aéroports à California

Données opérationnelles

Special qualification required
Heure actuelle UTC:
Heure actuelle locale:
Météo à : KOAK - Metropolitan Oakland Intl ( 16 km )
METAR: KOAK 231453Z 04004KT 5SM BR FEW004 BKN006 14/12 A2998 RMK AO2 SLP151 T01390122 53006
TAF: KOAK 231510Z 2315/2418 VRB06KT 6SM BR OVC006 FM231800 31011KT P6SM FEW010 FM232100 30010KT P6SM SKC FM240300 31006KT P6SM SKC FM241400 33006KT P6SM SCT005
Voir NOTAMs / SUP AIP / TFR affectant cet aéroport [VIEW]
Fréquences de communication: [VIEW]

Pistes:

Coordonnées de l'aéroport

Adresse: San Francisco United States

Vue satellite de 18CN